Time;durP1;ratioP1;P1;durP2;ratioP2;P2;SDS_P1;SDS_P2;PMS_P1;PMS_P2;Temp;Humidity;BMP_temperature;BMP_pressure;BME280_temperature;BME280_humidity;BME280_pressure;Samples;Min_cycle;Max_cycle;Signal;HPM_P1;HPM_P2
2023/06/14 00:02:08;;;;;;;9.00;6.80;;;;;;;20.25;38.75;92997.19;4988390;28;20022;-90
2023/06/14 00:04:33;;;;;;;11.00;6.97;;;;;;;20.24;38.81;92990.22;5015837;28;20120;-90
2023/06/14 00:07:00;;;;;;;10.18;7.20;;;;;;;20.25;38.78;92988.94;5015769;28;20040;-91
2023/06/14 00:09:25;;;;;;;9.90;6.30;;;;;;;20.25;38.96;92995.19;5012302;28;20053;-90
2023/06/14 00:11:51;;;;;;;12.07;7.20;;;;;;;20.24;38.74;92988.22;4982544;28;20041;-90
2023/06/14 00:14:16;;;;;;;10.70;7.28;;;;;;;20.22;38.97;92993.50;5000075;28;20046;-90
2023/06/14 00:16:43;;;;;;;9.15;6.65;;;;;;;20.24;39.03;92993.69;4999903;28;20033;-91
2023/06/14 00:19:10;;;;;;;9.20;6.93;;;;;;;20.23;38.91;92986.75;5015449;28;20075;-91
2023/06/14 00:21:36;;;;;;;8.40;6.93;;;;;;;20.23;38.87;92992.22;5015733;28;20179;-91
2023/06/14 00:24:02;;;;;;;9.07;6.45;;;;;;;20.21;39.04;92986.53;5016584;28;20046;-90
2023/06/14 00:26:27;;;;;;;10.95;6.85;;;;;;;20.23;38.86;92994.22;5011974;28;20120;-90
2023/06/14 00:28:54;;;;;;;9.23;6.28;;;;;;;20.23;38.94;92988.75;5012508;28;20065;-90
2023/06/14 00:31:19;;;;;;;8.85;6.05;;;;;;;20.22;38.97;92988.00;4997523;28;20033;-90
2023/06/14 00:33:46;;;;;;;8.65;6.35;;;;;;;20.21;38.82;92989.28;4999682;28;20091;-90
2023/06/14 00:36:12;;;;;;;10.93;7.07;;;;;;;20.22;38.92;92981.78;4979549;28;20041;-90
2023/06/14 00:38:38;;;;;;;11.40;7.30;;;;;;;20.21;38.85;92981.03;4992319;28;20041;-90
2023/06/14 00:41:03;;;;;;;9.65;6.38;;;;;;;20.20;39.06;92974.81;4979564;28;20048;-90
2023/06/14 00:43:28;;;;;;;8.70;6.00;;;;;;;20.22;38.76;92979.78;4997152;28;20042;-90
2023/06/14 00:45:54;;;;;;;10.05;6.18;;;;;;;20.22;39.04;92984.53;5016031;28;20052;-90
2023/06/14 00:48:19;;;;;;;9.35;5.95;;;;;;;20.22;38.86;92982.50;4995842;28;20382;-90
2023/06/14 00:50:48;;;;;;;9.00;6.00;;;;;;;20.19;38.83;92978.09;4980263;28;20046;-91
2023/06/14 00:53:15;;;;;;;9.82;6.53;;;;;;;20.22;39.07;92977.03;4995582;28;20053;-91
2023/06/14 00:55:40;;;;;;;9.05;6.50;;;;;;;20.18;39.14;92977.34;4998631;28;20029;-90
2023/06/14 00:58:06;;;;;;;8.68;5.53;;;;;;;20.19;39.06;92983.56;5021291;28;20065;-90
2023/06/14 01:00:32;;;;;;;7.15;5.63;;;;;;;20.18;38.80;92974.59;5031023;28;20042;-90
2023/06/14 01:02:58;;;;;;;9.63;5.78;;;;;;;20.19;39.06;92980.84;5046334;28;20491;-90
2023/06/14 01:05:23;;;;;;;8.13;5.85;;;;;;;20.20;38.82;92979.56;5030874;28;20104;-91
2023/06/14 01:07:58;;;;;;;6.82;5.93;;;;;;;20.19;39.11;92978.81;5030944;28;20403;-90
2023/06/14 01:10:37;;;;;;;7.97;5.47;;;;;;;20.17;38.97;92978.63;5038358;28;20044;-90
2023/06/14 01:13:05;;;;;;;8.18;6.05;;;;;;;20.20;39.11;92985.78;5075372;28;20163;-90
2023/06/14 01:15:31;;;;;;;9.20;5.97;;;;;;;20.20;39.14;92977.56;5034452;28;20363;-90
2023/06/14 01:18:02;;;;;;;8.45;5.72;;;;;;;20.17;38.90;92972.38;5050742;28;20045;-91
2023/06/14 01:20:29;;;;;;;7.80;5.43;;;;;;;20.19;38.92;92967.84;5034666;28;20483;-90
2023/06/14 01:22:55;;;;;;;8.77;5.57;;;;;;;20.17;39.25;92975.13;5039307;28;20110;-90
2023/06/14 01:25:22;;;;;;;8.68;5.45;;;;;;;20.16;39.41;92976.41;5017755;28;20256;-91
2023/06/14 01:27:54;;;;;;;7.18;5.25;;;;;;;20.19;39.08;92980.84;5024972;28;20064;-90
2023/06/14 01:30:20;;;;;;;7.00;5.20;;;;;;;20.16;39.20;92981.91;5009425;28;20431;-91
2023/06/14 01:32:45;;;;;;;7.05;5.22;;;;;;;20.16;39.35;92974.41;5044919;28;20048;-91
2023/06/14 01:35:11;;;;;;;7.13;4.93;;;;;;;20.14;39.35;92974.19;5017188;28;20502;-90
2023/06/14 01:37:36;;;;;;;8.88;5.45;;;;;;;20.18;39.56;92982.09;5014473;28;20041;-91
2023/06/14 01:40:03;;;;;;;8.68;5.40;;;;;;;20.18;39.40;92979.34;5034452;28;20410;-90
2023/06/14 01:42:30;;;;;;;7.55;5.63;;;;;;;20.16;39.28;92984.63;5017724;28;20064;-90
2023/06/14 01:44:55;;;;;;;7.88;5.63;;;;;;;20.16;38.87;92970.91;5029869;28;20060;-90
2023/06/14 01:47:22;;;;;;;10.52;5.55;;;;;;;20.14;39.35;92979.69;5013868;28;20038;-90
2023/06/14 01:49:47;;;;;;;10.80;6.07;;;;;;;20.15;39.41;92980.41;5004297;28;20046;-90
2023/06/14 01:52:13;;;;;;;7.68;5.18;;;;;;;20.15;39.34;92972.19;5002375;28;20036;-90
2023/06/14 01:54:42;;;;;;;7.60;5.05;;;;;;;20.17;39.27;92975.88;5017514;28;20113;-90
2023/06/14 01:57:10;;;;;;;9.90;6.00;;;;;;;20.17;39.49;92975.88;5018816;28;20055;-90
2023/06/14 01:59:36;;;;;;;8.40;5.72;;;;;;;20.15;39.27;92961.94;5017679;28;20043;-90
2023/06/14 02:02:03;;;;;;;9.30;5.28;;;;;;;20.14;39.38;92968.69;5031669;28;20041;-90
2023/06/14 02:04:28;;;;;;;7.25;4.90;;;;;;;20.15;39.41;92972.19;5005621;28;20132;-91
2023/06/14 02:06:54;;;;;;;7.38;4.72;;;;;;;20.15;39.63;92980.41;5044559;28;20040;-89
2023/06/14 02:09:19;;;;;;;8.10;5.25;;;;;;;20.15;39.16;92972.91;5034805;28;20040;-91
2023/06/14 02:11:44;;;;;;;7.38;5.47;;;;;;;20.14;39.46;92971.44;5035836;28;20079;-90
2023/06/14 02:14:11;;;;;;;6.68;5.15;;;;;;;20.14;39.41;92978.94;5034842;28;20045;-91
2023/06/14 02:16:38;;;;;;;7.25;4.82;;;;;;;20.14;39.59;92976.19;5037470;28;20082;-91
2023/06/14 02:19:04;;;;;;;5.88;4.97;;;;;;;20.13;39.41;92970.00;5019171;28;20041;-90
2023/06/14 02:21:30;;;;;;;5.47;4.90;;;;;;;20.15;39.69;92980.41;5019525;28;20040;-90
2023/06/14 02:23:55;;;;;;;6.07;4.55;;;;;;;20.14;39.40;92979.69;5019279;28;20056;-89
2023/06/14 02:26:22;;;;;;;6.53;4.28;;;;;;;20.12;39.52;92976.03;5065855;28;20433;-91
2023/06/14 02:28:48;;;;;;;7.22;4.40;;;;;;;20.11;39.33;92975.28;5036524;28;20056;-91
2023/06/14 02:31:13;;;;;;;7.05;4.88;;;;;;;20.13;39.39;92980.25;5039757;28;20044;-90
2023/06/14 02:33:39;;;;;;;5.55;4.47;;;;;;;20.11;39.54;92980.78;5065225;28;20043;-90
2023/06/14 02:36:05;;;;;;;8.43;5.07;;;;;;;20.10;39.93;92982.03;5019206;28;20047;-91
2023/06/14 02:38:30;;;;;;;6.70;4.32;;;;;;;20.12;39.56;92981.50;5036854;28;20048;-90
2023/06/14 02:40:59;;;;;;;5.22;4.15;;;;;;;20.10;40.02;92981.31;5034321;28;20037;-90
2023/06/14 02:43:24;;;;;;;7.10;4.78;;;;;;;20.10;40.01;92984.03;5031800;28;20366;-91
2023/06/14 02:45:50;;;;;;;7.32;4.75;;;;;;;20.13;39.54;92985.72;5018118;28;20052;-90
2023/06/14 02:48:15;;;;;;;6.45;4.57;;;;;;;20.11;39.76;92980.03;5017169;28;20102;-90
2023/06/14 02:50:42;;;;;;;6.97;4.32;;;;;;;20.10;39.75;92979.28;5030833;28;20041;-90
2023/06/14 02:53:08;;;;;;;6.20;4.78;;;;;;;20.13;39.77;92985.72;5006861;28;20491;-91
2023/06/14 02:55:33;;;;;;;7.10;4.45;;;;;;;20.11;39.73;92985.53;5010395;28;20045;-91
2023/06/14 02:58:00;;;;;;;6.90;4.57;;;;;;;20.10;39.67;92989.53;5041804;28;20029;-91
2023/06/14 03:00:26;;;;;;;8.70;4.40;;;;;;;20.11;39.84;92972.53;5049375;28;20040;-90
2023/06/14 03:02:51;;;;;;;7.85;4.47;;;;;;;20.11;39.82;92975.28;5055100;28;20033;-91
2023/06/14 03:05:21;;;;;;;8.13;4.93;;;;;;;20.09;39.98;92977.81;5032864;28;20376;-90
2023/06/14 03:07:50;;;;;;;5.95;4.45;;;;;;;20.08;39.98;92973.59;5022242;28;20405;-90
2023/06/14 03:10:15;;;;;;;6.47;4.80;;;;;;;20.10;39.89;92979.28;5054027;28;20123;-90
2023/06/14 03:12:41;;;;;;;6.63;4.53;;;;;;;20.07;39.75;92977.59;5017340;28;20037;-89
2023/06/14 03:15:07;;;;;;;7.55;4.53;;;;;;;20.08;39.99;92970.84;5033685;28;20049;-91
2023/06/14 03:17:33;;;;;;;5.43;4.18;;;;;;;20.09;39.80;92972.34;5017163;28;20067;-90
2023/06/14 03:19:59;;;;;;;8.23;4.85;;;;;;;20.08;39.99;92970.84;5017869;28;20045;-91
2023/06/14 03:22:26;;;;;;;6.30;4.07;;;;;;;20.11;40.37;92978.03;5036685;28;20033;-91
2023/06/14 03:24:54;;;;;;;5.40;3.88;;;;;;;20.07;40.42;92972.13;5020353;28;20052;-90
2023/06/14 03:27:20;;;;;;;6.15;4.63;;;;;;;20.10;40.26;92978.56;5018782;28;20041;-90
2023/06/14 03:29:46;;;;;;;7.57;4.85;;;;;;;20.16;40.21;92970.91;5050048;28;20052;-91
2023/06/14 03:32:11;;;;;;;7.03;4.05;;;;;;;20.12;40.15;92970.53;5013694;28;20049;-91
2023/06/14 03:34:38;;;;;;;13.63;4.80;;;;;;;20.15;40.68;92975.66;5016622;28;20045;-90
2023/06/14 03:37:05;;;;;;;21.50;13.30;;;;;;;20.19;40.19;92975.34;5003237;28;20068;-89
2023/06/14 03:39:33;;;;;;;22.08;14.65;;;;;;;20.38;40.29;92981.41;5035491;28;20045;-89
2023/06/14 03:41:59;;;;;;;19.00;13.70;;;;;;;20.30;40.01;92985.34;5027887;28;20091;-88
2023/06/14 03:44:26;;;;;;;10.68;8.23;;;;;;;20.29;39.76;92986.63;5012123;28;20057;-88
2023/06/14 03:46:52;;;;;;;21.40;12.05;;;;;;;20.34;39.96;92992.00;5024125;28;20042;-89
2023/06/14 03:49:21;;;;;;;9.98;6.32;;;;;;;20.27;39.86;92984.41;5015260;28;20135;-92
2023/06/14 03:51:50;;;;;;;14.98;5.95;;;;;;;20.25;40.24;92992.44;5008063;28;20049;-92
2023/06/14 03:54:16;;;;;;;26.23;7.20;;;;;;;20.26;39.94;93001.41;4991867;28;20042;-88
2023/06/14 03:56:43;;;;;;;16.92;5.85;;;;;;;20.07;40.01;93002.31;4991698;28;20041;-91
2023/06/14 03:59:10;;;;;;;66.70;25.30;;;;;;;20.01;40.10;92998.94;4987472;28;20041;-90
2023/06/14 04:01:45;;;;;;;91.90;20.40;;;;;;;19.91;40.29;93000.66;5008167;28;20037;-90
2023/06/14 04:04:11;;;;;;;43.08;13.52;;;;;;;19.89;40.41;93008.69;5009523;28;20037;-90
2023/06/14 04:06:37;;;;;;;55.05;16.45;;;;;;;19.85;40.63;93019.22;5031020;28;20036;-90
2023/06/14 04:09:02;;;;;;;73.03;23.65;;;;;;;19.70;40.83;93011.53;5050057;28;20037;-88
2023/06/14 04:11:28;;;;;;;79.28;24.75;;;;;;;19.68;40.73;93010.59;5047075;28;20490;-89
2023/06/14 04:13:53;;;;;;;68.78;23.23;;;;;;;19.63;41.29;93014.19;5046821;28;20475;-92
2023/06/14 04:16:19;;;;;;;73.35;21.30;;;;;;;19.60;41.58;93007.00;5030232;28;20033;-91
2023/06/14 04:18:46;;;;;;;49.05;18.13;;;;;;;19.51;41.75;93008.16;5025437;28;20246;-91
2023/06/14 04:21:11;;;;;;;64.30;22.73;;;;;;;19.55;41.55;93016.06;5030441;28;20033;-89
2023/06/14 04:23:37;;;;;;;60.25;21.30;;;;;;;19.41;41.59;93012.59;5007719;28;20053;-89
2023/06/14 04:26:04;;;;;;;84.22;27.20;;;;;;;19.56;41.86;93023.03;5028207;28;20034;-89
2023/06/14 04:28:29;;;;;;;93.63;25.15;;;;;;;19.56;42.12;93028.53;5038527;28;20052;-88
2023/06/14 04:30:56;;;;;;;77.65;21.65;;;;;;;19.51;41.95;93021.88;5016712;28;20045;-91
2023/06/14 04:33:25;;;;;;;81.28;19.33;;;;;;;19.52;42.11;93031.56;5015749;28;20034;-89
2023/06/14 04:35:53;;;;;;;182.93;39.05;;;;;;;19.49;42.38;93032.59;5028195;28;20045;-88
2023/06/14 04:38:19;;;;;;;311.88;119.97;;;;;;;19.44;42.39;93027.97;5012526;28;20080;-91
2023/06/14 04:40:45;;;;;;;399.67;182.65;;;;;;;19.52;42.59;93034.31;4977979;28;20041;-91
2023/06/14 04:43:17;;;;;;;142.75;52.22;;;;;;;19.41;42.72;93031.75;4990648;28;20037;-90
2023/06/14 04:45:46;;;;;;;259.40;57.78;;;;;;;19.46;43.08;93039.91;5028249;28;20101;-89
2023/06/14 04:48:12;;;;;;;188.20;43.78;;;;;;;19.44;43.06;93034.19;5029217;28;20130;-91
2023/06/14 04:50:37;;;;;;;173.57;52.13;;;;;;;19.41;43.16;93034.50;4990290;28;20037;-88
2023/06/14 04:53:02;;;;;;;177.45;67.10;;;;;;;19.42;43.27;93038.72;5013341;28;20072;-89
2023/06/14 04:55:28;;;;;;;274.70;126.13;;;;;;;19.48;42.90;93036.63;5027906;28;20701;-89
2023/06/14 04:57:53;;;;;;;268.10;130.65;;;;;;;19.38;43.37;93041.03;5028692;28;20111;-90
2023/06/14 05:00:20;;;;;;;542.53;352.55;;;;;;;19.41;43.33;93032.50;5025288;28;20499;-88
2023/06/14 05:02:46;;;;;;;246.10;91.78;;;;;;;19.47;42.85;93033.16;5029290;28;20045;-89
2023/06/14 05:05:12;;;;;;;186.43;72.28;;;;;;;19.43;43.08;93032.72;5025006;28;20641;-89
2023/06/14 05:07:37;;;;;;;118.13;57.05;;;;;;;19.41;43.05;93034.50;5030057;28;20080;-89
2023/06/14 05:10:03;;;;;;;112.82;47.10;;;;;;;19.44;42.83;93031.47;5005577;28;20038;-89
2023/06/14 05:12:30;;;;;;;101.72;44.72;;;;;;;19.45;43.25;93041.16;5016787;28;20036;-89
2023/06/14 05:14:55;;;;;;;97.57;36.40;;;;;;;19.45;43.12;93041.16;5005578;28;20111;-90
2023/06/14 05:17:22;;;;;;;60.75;26.20;;;;;;;19.44;43.13;93047.91;4981707;28;20451;-90
2023/06/14 05:19:47;;;;;;;56.20;25.25;;;;;;;19.42;43.23;93049.69;5026735;28;20041;-91
2023/06/14 05:22:13;;;;;;;67.93;24.65;;;;;;;19.49;43.38;93044.31;5014840;28;20423;-91
2023/06/14 05:24:41;;;;;;;53.20;25.20;;;;;;;19.50;42.90;93051.28;5010235;28;20062;-92
2023/06/14 05:27:10;;;;;;;62.47;29.02;;;;;;;19.58;42.80;93054.16;5034108;28;20072;-91
2023/06/14 05:29:39;;;;;;;91.82;33.75;;;;;;;19.67;42.80;93053.75;4993345;28;20454;-91
2023/06/14 05:32:05;;;;;;;185.68;50.50;;;;;;;19.74;42.43;93050.34;5015808;28;20121;-91
2023/06/14 05:34:31;;;;;;;142.75;49.65;;;;;;;19.80;42.28;93059.22;4999247;28;20049;-91
2023/06/14 05:36:57;;;;;;;122.82;49.30;;;;;;;19.86;42.36;93053.63;5016932;28;20063;-91
2023/06/14 05:39:23;;;;;;;170.88;62.17;;;;;;;19.91;42.54;93057.53;4985528;28;20266;-91
2023/06/14 05:41:49;;;;;;;199.13;67.55;;;;;;;19.95;42.36;93061.41;4994140;28;20072;-91
2023/06/14 05:44:15;;;;;;;218.43;71.55;;;;;;;19.98;42.38;93054.88;4993268;28;20054;-91
2023/06/14 05:46:41;;;;;;;210.98;71.20;;;;;;;20.00;42.26;93063.31;5011459;28;20069;-91
2023/06/14 05:49:06;;;;;;;229.43;76.45;;;;;;;20.01;42.06;93064.03;5007498;28;20068;-91
2023/06/14 05:51:32;;;;;;;230.98;83.22;;;;;;;20.07;42.17;93065.41;5016362;28;20037;-89
2023/06/14 05:53:57;;;;;;;256.77;100.03;;;;;;;20.09;42.08;93065.63;5019970;28;20042;-90
2023/06/14 05:56:23;;;;;;;236.63;97.85;;;;;;;20.13;42.18;93066.06;4991487;28;20072;-90
2023/06/14 05:58:50;;;;;;;238.52;97.57;;;;;;;20.13;42.08;93070.81;5011290;28;20041;-88
2023/06/14 06:01:17;;;;;;;248.98;108.05;;;;;;;20.19;42.06;93077.63;5022148;28;20074;-90
2023/06/14 06:03:45;;;;;;;219.40;88.47;;;;;;;20.22;41.93;93072.34;5011783;28;20029;-90
2023/06/14 06:06:11;;;;;;;133.10;58.08;;;;;;;20.23;42.07;93074.56;4994662;28;20125;-89
2023/06/14 06:08:40;;;;;;;108.38;47.17;;;;;;;20.29;42.56;93077.19;5025247;28;20038;-88
2023/06/14 06:11:05;;;;;;;414.55;328.42;;;;;;;20.32;42.24;93076.16;5026190;28;20103;-88
2023/06/14 06:13:34;;;;;;;109.65;51.38;;;;;;;20.26;42.50;93073.50;4985944;28;20178;-88
2023/06/14 06:16:00;;;;;;;155.73;59.83;;;;;;;20.30;41.96;93082.16;5036216;28;20084;-88
2023/06/14 06:18:25;;;;;;;51.53;26.83;;;;;;;20.31;41.92;93080.16;5006209;28;20053;-88
2023/06/14 06:20:51;;;;;;;69.03;32.45;;;;;;;20.30;41.86;93089.66;5024742;28;20045;-87
2023/06/14 06:23:17;;;;;;;61.10;27.75;;;;;;;20.30;42.35;93095.88;5012024;28;20131;-87
2023/06/14 06:25:43;;;;;;;68.40;26.67;;;;;;;20.37;42.00;93089.75;5009860;28;20499;-88
2023/06/14 06:28:08;;;;;;;57.45;27.17;;;;;;;20.36;41.86;93090.25;4991139;28;20440;-88
2023/06/14 06:30:41;;;;;;;54.63;26.90;;;;;;;20.34;41.97;93090.81;5023967;28;20046;-88
2023/06/14 06:33:06;;;;;;;69.43;29.40;;;;;;;20.35;41.84;93091.56;5042418;28;20046;-88
2023/06/14 06:35:32;;;;;;;84.13;31.63;;;;;;;20.38;41.77;93098.72;5010748;28;20042;-87
2023/06/14 06:37:58;;;;;;;142.10;46.20;;;;;;;20.38;42.09;93099.47;5026984;28;20042;-88
2023/06/14 06:40:23;;;;;;;118.93;31.85;;;;;;;20.40;41.82;93101.69;5016334;28;20230;-88
2023/06/14 06:42:50;;;;;;;75.22;23.70;;;;;;;20.38;41.56;93096.00;5033654;28;20050;-88
2023/06/14 06:45:15;;;;;;;85.55;27.83;;;;;;;20.35;41.86;93108.75;5034070;28;20037;-89
2023/06/14 06:47:41;;;;;;;176.52;44.78;;;;;;;20.41;41.94;93098.41;5018776;28;20045;-90
2023/06/14 06:50:09;;;;;;;145.25;39.10;;;;;;;20.37;41.94;93110.97;5016489;28;20029;-89
2023/06/14 06:52:35;;;;;;;98.70;28.17;;;;;;;20.41;41.91;93095.66;5034300;28;20042;-91
2023/06/14 06:55:02;;;;;;;135.93;32.47;;;;;;;20.40;42.09;93113.41;5018990;28;20029;-90
2023/06/14 06:57:29;;;;;;;220.82;47.45;;;;;;;20.41;42.11;93112.13;5042229;28;20059;-90
2023/06/14 06:59:55;;;;;;;117.40;29.42;;;;;;;20.41;42.07;93112.13;5024292;28;20407;-90
2023/06/14 07:02:20;;;;;;;244.32;64.68;;;;;;;20.41;42.09;93117.63;5037486;28;20076;-90
2023/06/14 07:04:48;;;;;;;131.50;37.30;;;;;;;20.41;42.19;93117.63;5051324;28;20474;-89
2023/06/14 07:07:13;;;;;;;226.95;75.88;;;;;;;20.42;42.04;93113.63;5070409;28;20044;-89
2023/06/14 07:09:41;;;;;;;269.85;73.63;;;;;;;20.44;41.88;93119.31;5043945;28;20730;-89
2023/06/14 07:12:07;;;;;;;299.00;82.72;;;;;;;20.48;42.13;93124.50;5020287;28;20049;-89
2023/06/14 07:14:42;;;;;;;294.45;87.00;;;;;;;20.47;42.39;93123.75;5042198;28;20042;-90
2023/06/14 07:17:08;;;;;;;255.35;76.40;;;;;;;20.48;42.26;93135.47;5039026;28;20037;-88
2023/06/14 07:19:33;;;;;;;260.80;92.25;;;;;;;20.53;42.14;93129.13;5018157;28;20048;-88
2023/06/14 07:21:58;;;;;;;111.40;47.42;;;;;;;20.44;41.88;93127.56;5059205;28;20071;-91
2023/06/14 07:24:24;;;;;;;129.88;47.17;;;;;;;20.41;42.26;93133.38;5030990;28;20618;-91
2023/06/14 07:26:51;;;;;;;158.35;57.03;;;;;;;20.31;42.03;93124.81;5017772;28;20560;-91
2023/06/14 07:29:16;;;;;;;152.35;54.75;;;;;;;20.36;42.32;93132.19;4994165;28;20064;-91
2023/06/14 07:31:41;;;;;;;173.40;64.38;;;;;;;20.32;42.82;93129.03;5023092;28;20614;-89
2023/06/14 07:34:09;;;;;;;218.90;74.00;;;;;;;20.30;42.61;93128.81;5053985;28;20041;-91
2023/06/14 07:36:36;;;;;;;199.95;69.38;;;;;;;20.29;42.61;93124.59;5036447;28;20049;-91
2023/06/14 07:39:03;;;;;;;155.20;55.13;;;;;;;20.29;42.63;93121.88;5040353;28;20042;-90
2023/06/14 07:41:28;;;;;;;114.18;43.30;;;;;;;20.30;42.70;93128.09;5029416;28;20049;-90
2023/06/14 07:43:55;;;;;;;105.63;42.17;;;;;;;20.26;42.47;93133.16;5060340;28;20053;-90
2023/06/14 07:46:20;;;;;;;117.25;42.58;;;;;;;20.29;42.58;93130.09;5029492;28;20447;-91
2023/06/14 07:48:47;;;;;;;116.60;39.63;;;;;;;20.30;42.77;93142.56;5009483;28;20044;-90
2023/06/14 07:51:14;;;;;;;92.20;37.05;;;;;;;20.29;42.77;93130.09;5012782;28;20044;-91
2023/06/14 07:53:54;;;;;;;107.57;38.58;;;;;;;20.28;43.14;93131.38;5062423;28;20126;-92
2023/06/14 07:56:21;;;;;;;118.35;43.47;;;;;;;20.30;42.83;93136.31;5022521;28;20037;-88
2023/06/14 07:58:46;;;;;;;135.00;61.05;;;;;;;20.32;42.99;93142.03;5048708;28;20083;-87
2023/06/14 08:01:25;;;;;;;91.90;34.13;;;;;;;20.24;43.28;93132.94;5018860;28;21001;-90
2023/06/14 08:03:50;;;;;;;71.47;24.48;;;;;;;20.23;43.66;93136.97;4991419;28;20034;-91
2023/06/14 08:06:16;;;;;;;83.03;25.60;;;;;;;20.22;43.66;93133.47;4960434;28;20129;-89
2023/06/14 08:08:41;;;;;;;51.83;20.50;;;;;;;20.24;43.57;93141.19;4975014;28;20077;-89
2023/06/14 08:11:07;;;;;;;55.30;22.05;;;;;;;20.22;43.63;93143.72;4949694;28;20046;-89
2023/06/14 08:13:33;;;;;;;63.90;20.35;;;;;;;20.20;43.44;93144.97;4979413;28;20428;-90
2023/06/14 08:16:00;;;;;;;52.60;20.27;;;;;;;20.24;43.50;93144.66;4982539;28;20483;-89
2023/06/14 08:18:25;;;;;;;68.35;20.63;;;;;;;20.25;43.42;93153.63;4965741;28;20086;-90
2023/06/14 08:20:52;;;;;;;56.65;20.25;;;;;;;20.25;43.63;93151.63;4965352;28;20047;-90
2023/06/14 08:23:18;;;;;;;69.88;26.35;;;;;;;20.23;43.56;93145.94;4976934;28;20054;-91
2023/06/14 08:25:45;;;;;;;67.38;27.80;;;;;;;20.18;43.28;93155.75;4961247;28;20618;-90
2023/06/14 08:28:10;;;;;;;73.68;31.25;;;;;;;20.24;43.25;93146.66;4915653;28;20086;-89
2023/06/14 08:30:37;;;;;;;76.85;30.50;;;;;;;20.32;43.21;93150.25;4957394;28;20054;-89
2023/06/14 08:33:03;;;;;;;92.85;29.98;;;;;;;20.24;42.89;93144.66;4954961;28;20683;-90
2023/06/14 08:35:28;;;;;;;90.60;42.53;;;;;;;20.23;43.09;93139.69;4976196;28;20046;-91
2023/06/14 08:37:54;;;;;;;169.38;80.65;;;;;;;20.19;42.94;93146.25;4960165;28;20053;-91
2023/06/14 08:40:24;;;;;;;136.30;65.68;;;;;;;20.19;42.81;93146.25;4986796;28;20138;-91
2023/06/14 08:43:00;;;;;;;126.57;63.58;;;;;;;20.24;42.87;93154.91;4969599;28;20619;-91
2023/06/14 08:45:25;;;;;;;118.03;54.85;;;;;;;20.23;42.71;93151.41;4956527;28;20260;-90
2023/06/14 08:47:53;;;;;;;118.57;52.17;;;;;;;20.23;42.24;93156.16;5001366;28;20049;-89
2023/06/14 08:50:29;;;;;;;130.73;53.70;;;;;;;20.27;42.45;93160.06;4983985;28;20495;-89
2023/06/14 08:53:00;;;;;;;107.45;48.95;;;;;;;20.27;42.28;93159.34;4977850;28;20054;-89
2023/06/14 08:55:26;;;;;;;;;;;;;;;20.31;41.92;93163.25;4999196;28;20068;-89
2023/06/14 08:57:57;;;;;;;69.93;32.88;;;;;;;20.26;41.67;93155.13;5040108;28;19933;-90
2023/06/14 09:00:24;;;;;;;108.47;39.70;;;;;;;20.28;41.70;93156.06;5011753;28;20084;-89
2023/06/14 09:02:55;;;;;;;92.28;37.58;;;;;;;20.30;41.46;93158.28;4983034;28;20081;-90
2023/06/14 09:05:23;;;;;;;81.60;33.70;;;;;;;20.33;41.34;93151.75;5025847;28;20060;-89
2023/06/14 09:07:50;;;;;;;86.88;32.30;;;;;;;20.25;41.52;93151.63;5029057;28;20049;-89
2023/06/14 09:10:15;;;;;;;80.15;29.00;;;;;;;20.24;41.60;93163.13;5026766;28;20038;-90
2023/06/14 09:12:42;;;;;;;117.43;48.35;;;;;;;20.31;41.33;93154.28;5021587;28;20393;-89
2023/06/14 09:15:08;;;;;;;126.15;62.88;;;;;;;20.29;41.12;93163.03;5020012;28;20029;-91
2023/06/14 09:17:37;;;;;;;167.65;83.85;;;;;;;20.34;40.75;93162.19;5035230;28;20042;-89
2023/06/14 09:20:06;;;;;;;143.60;66.45;;;;;;;20.36;40.43;93164.38;5011232;28;20068;-90
2023/06/14 09:22:32;;;;;;;137.32;63.22;;;;;;;20.34;40.94;93161.44;5008587;28;20436;-88
2023/06/14 09:24:57;;;;;;;141.48;66.82;;;;;;;20.33;40.46;93168.94;5013339;28;20084;-91
2023/06/14 09:27:24;;;;;;;152.48;52.30;;;;;;;20.32;40.32;93161.25;5003758;28;20045;-88
2023/06/14 09:29:50;;;;;;;137.73;55.00;;;;;;;20.35;40.11;93174.63;5013459;28;20429;-91
2023/06/14 09:32:16;;;;;;;155.52;58.03;;;;;;;20.38;40.28;93170.84;5001620;28;20358;-90
2023/06/14 09:34:42;;;;;;;176.25;68.72;;;;;;;20.38;40.37;93175.59;5023378;28;20064;-90
2023/06/14 09:37:07;;;;;;;139.63;56.42;;;;;;;20.33;40.43;93177.19;5010103;28;20403;-90
2023/06/14 09:39:33;;;;;;;123.72;49.78;;;;;;;20.32;40.53;93174.97;4997729;28;20045;-90
2023/06/14 09:42:17;;;;;;;124.57;48.25;;;;;;;20.33;40.54;93170.97;5006207;28;20076;-91
2023/06/14 09:44:43;;;;;;;145.50;48.55;;;;;;;20.32;40.39;93172.22;5025606;28;20750;-90
2023/06/14 09:47:08;;;;;;;125.95;46.72;;;;;;;20.35;40.72;93171.16;5023932;28;20038;-90
2023/06/14 09:49:36;;;;;;;132.93;46.75;;;;;;;20.36;40.56;93180.84;5016278;28;20414;-91
2023/06/14 09:52:02;;;;;;;146.40;46.50;;;;;;;20.37;40.55;93174.13;5000804;28;20041;-88
2023/06/14 09:54:27;;;;;;;100.82;39.78;;;;;;;20.35;40.21;93171.88;5012795;28;20124;-91
2023/06/14 09:56:54;;;;;;;111.55;42.30;;;;;;;20.31;40.43;93170.75;5027455;28;20037;-90
2023/06/14 09:59:21;;;;;;;157.30;48.97;;;;;;;20.36;40.63;93167.13;4991768;28;20135;-91
2023/06/14 10:01:50;;;;;;;167.35;74.38;;;;;;;20.34;40.30;93164.94;4998810;28;20038;-89
2023/06/14 10:04:15;;;;;;;135.38;65.05;;;;;;;20.28;40.50;93174.53;5002149;28;20072;-90
2023/06/14 10:06:43;;;;;;;95.85;49.67;;;;;;;20.22;40.71;93168.41;5051606;28;20519;-91
2023/06/14 10:09:09;;;;;;;94.45;49.75;;;;;;;20.25;40.86;93172.84;5033411;28;20144;-90
2023/06/14 10:11:43;;;;;;;81.03;39.90;;;;;;;20.21;40.78;93184.16;5038716;28;20050;-89
2023/06/14 10:14:09;;;;;;;75.68;38.17;;;;;;;20.24;40.90;93174.13;5008276;28;20137;-89
2023/06/14 10:16:56;;;;;;;67.32;34.38;;;;;;;20.25;41.12;93181.09;5004734;28;20046;-91
2023/06/14 10:19:35;;;;;;;59.15;30.05;;;;;;;20.28;40.94;93169.78;4985418;28;20045;-88
2023/06/14 10:22:12;;;;;;;60.78;26.52;;;;;;;20.25;40.60;93176.34;5038220;28;20041;-89
2023/06/14 10:24:42;;;;;;;48.40;24.90;;;;;;;20.26;40.05;93168.84;5026995;28;20151;-88
2023/06/14 10:27:10;;;;;;;42.15;21.52;;;;;;;20.24;40.35;93169.38;5025843;28;20128;-87
2023/06/14 10:29:54;;;;;;;33.08;18.10;;;;;;;20.24;40.52;93177.59;5027210;28;20037;-87
2023/06/14 10:32:20;;;;;;;32.30;17.42;;;;;;;20.37;40.25;93187.84;5025643;28;20052;-87
2023/06/14 10:34:46;;;;;;;31.67;16.40;;;;;;;20.28;39.84;93175.28;5006255;28;20041;-86
2023/06/14 10:37:13;;;;;;;28.20;16.00;;;;;;;20.25;39.79;93178.34;5007846;28;20049;-87
2023/06/14 10:39:42;;;;;;;21.17;13.15;;;;;;;20.23;39.61;93176.13;5026287;28;20057;-87
2023/06/14 10:42:08;;;;;;;25.03;15.17;;;;;;;20.29;39.48;93170.53;5025509;28;20591;-87
2023/06/14 10:44:38;;;;;;;20.33;12.23;;;;;;;20.25;39.47;93162.59;5007319;28;20130;-87
2023/06/14 10:47:07;;;;;;;101.13;64.65;;;;;;;20.32;39.52;93166.72;5013941;28;20121;-87
2023/06/14 10:49:45;;;;;;;17.48;10.43;;;;;;;20.29;39.79;93170.53;5013734;28;20042;-87
2023/06/14 10:52:18;;;;;;;32.00;18.65;;;;;;;20.30;39.61;93172.00;5040607;28;20041;-87
2023/06/14 10:55:10;;;;;;;27.25;15.98;;;;;;;20.31;39.78;93171.47;5010604;28;20036;-88
2023/06/14 10:57:38;;;;;;;44.55;18.85;;;;;;;20.32;40.13;93169.47;5035973;28;20372;-88
2023/06/14 11:00:12;;;;;;;88.32;37.58;;;;;;;20.32;39.65;93169.47;5030523;28;20065;-87
2023/06/14 11:02:51;;;;;;;87.85;39.13;;;;;;;20.32;39.58;93161.25;5014252;28;20459;-88
2023/06/14 11:05:16;;;;;;;107.32;49.20;;;;;;;20.34;39.83;93162.19;5049628;28;20040;-87
2023/06/14 11:07:52;;;;;;;104.95;43.25;;;;;;;20.43;39.53;93163.78;5030588;28;20495;-87
2023/06/14 11:10:40;;;;;;;95.90;37.85;;;;;;;20.36;39.49;93165.13;5035177;28;20498;-87
2023/06/14 11:13:07;;;;;;;115.53;40.17;;;;;;;20.39;39.30;93164.09;5032118;28;20068;-87
2023/06/14 11:15:33;;;;;;;93.07;38.80;;;;;;;20.37;39.74;93163.88;5010529;28;20034;-87
2023/06/14 11:18:05;;;;;;;123.72;51.40;;;;;;;20.41;39.71;93164.31;5050766;28;20121;-90
2023/06/14 11:20:32;;;;;;;110.65;45.47;;;;;;;20.39;39.90;93166.09;5015422;28;20029;-90